Private Wetterstation Wechselburg
Wetterdaten: Woche 18.09.23 - 24.09.23 (KW38)
Datum Zeit Temp. +2m Bodentemp. Temp.+5cm Temp. Wind Windchill X Diff Temp. Feuchte +2m Feuchte +5cm Luftdruck Regen Wind Richtung Sonnenschein Taupunkt Windchill Windben
18.09.2023 00:00 18,9 C 18,7 C 17,9 C 18,7 C 18,4 C 0,0 C 72 % 69 % 1012,3 hPa 0,0 l/m 0,0 km/h (0 Bft) N 0,00 h 13,8 C 18,4 C 0,0 km/h (0 Bft)
18.09.2023 01:00 18,1 C 18,6 C 17,1 C 17,9 C 17,7 C 0,0 C 75 % 71 % 1011,8 hPa 0,0 l/m 0,0 km/h (0 Bft) N 0,00 h 13,5 C 17,7 C 0,0 km/h (0 Bft)
18.09.2023 02:00 16,9 C 18,6 C 15,9 C 16,7 C 16,3 C 0,0 C 77 % 74 % 1011,3 hPa 0,0 l/m 0,0 km/h (0 Bft) N 0,00 h 12,9 C 16,3 C 0,0 km/h (0 Bft)
18.09.2023 03:00 15,8 C 18,6 C 15,1 C 15,5 C 15,0 C 0,0 C 81 % 76 % 1010,6 hPa 0,0 l/m 0,0 km/h (0 Bft) N 0,00 h 12,4 C 15,0 C 0,0 km/h (0 Bft)
18.09.2023 04:00 15,0 C 18,6 C 14,5 C 14,8 C 14,5 C 0,0 C 82 % 78 % 1009,7 hPa 0,0 l/m 0,0 km/h (0 Bft) N 0,00 h 12,0 C 14,5 C 0,0 km/h (0 Bft)
18.09.2023 05:00 14,6 C 18,5 C 14,1 C 14,5 C 14,3 C 0,0 C 84 % 79 % 1009,3 hPa 0,0 l/m 0,0 km/h (0 Bft) N 0,00 h 11,8 C 14,3 C 0,0 km/h (0 Bft)
18.09.2023 06:00 14,3 C 18,4 C 14,1 C 14,4 C 14,2 C 0,1 C 85 % 80 % 1008,7 hPa 0,0 l/m 0,0 km/h (0 Bft) N 0,00 h 11,9 C 14,2 C 0,0 km/h (0 Bft)
18.09.2023 07:00 16,2 C 18,2 C 15,7 C 17,8 C 17,8 C 1,6 C 85 % 78 % 1008,2 hPa 0,0 l/m 0,0 km/h (0 Bft) N 0,92 h 13,6 C 17,8 C 0,0 km/h (0 Bft)
18.09.2023 08:00 18,1 C 18,1 C 16,6 C 23,1 C 23,1 C 5,1 C 80 % 78 % 1007,5 hPa 0,0 l/m 0,0 km/h (0 Bft) N 0,92 h 14,6 C 23,1 C 0,0 km/h (0 Bft)
18.09.2023 09:00 20,9 C 17,9 C 19,9 C 25,2 C 25,2 C 4,3 C 74 % 73 % 1006,7 hPa 0,0 l/m 0,0 km/h (0 Bft) N 0,65 h 16,0 C 25,2 C 0,0 km/h (0 Bft)
18.09.2023 10:00 24,1 C 18,0 C 22,6 C 27,4 C 27,4 C 3,3 C 64 % 67 % 1007,2 hPa 0,0 l/m 0,0 km/h (0 Bft) N 0,52 h 16,7 C 27,4 C 0,0 km/h (0 Bft)
18.09.2023 11:00 25,9 C 18,1 C 24,7 C 27,9 C 27,9 C 2,0 C 56 % 56 % 1007,0 hPa 0,0 l/m 0,1 km/h (0 Bft) N 0,00 h 16,3 C 27,9 C 0,3 km/h (0 Bft)
18.09.2023 12:00 26,4 C 18,2 C 25,6 C 28,5 C 28,5 C 2,2 C 55 % 55 % 1007,1 hPa 0,0 l/m 0,1 km/h (0 Bft) N 0,22 h 16,5 C 28,5 C 0,0 km/h (0 Bft)
18.09.2023 13:00 27,4 C 18,4 C 26,2 C 29,8 C 29,8 C 2,4 C 52 % 53 % 1006,9 hPa 0,0 l/m 0,1 km/h (0 Bft) N 0,08 h 16,8 C 29,8 C 0,5 km/h (0 Bft)
18.09.2023 14:00 26,6 C 18,6 C 25,3 C 27,5 C 27,5 C 0,9 C 54 % 55 % 1007,1 hPa 0,0 l/m 0,0 km/h (0 Bft) N 0,00 h 16,6 C 27,5 C 0,0 km/h (0 Bft)
18.09.2023 15:00 25,7 C 18,8 C 24,7 C 26,5 C 26,5 C 0,8 C 57 % 57 % 1007,4 hPa 0,0 l/m 0,0 km/h (0 Bft) N 0,00 h 16,6 C 26,5 C 0,0 km/h (0 Bft)
18.09.2023 16:00 23,5 C 18,9 C 22,2 C 23,3 C 22,7 C 0,0 C 64 % 64 % 1007,8 hPa 0,0 l/m 0,0 km/h (0 Bft) N 0,00 h 16,1 C 22,7 C 0,0 km/h (0 Bft)
18.09.2023 17:00 21,0 C 19,3 C 19,4 C 20,2 C 18,7 C 0,0 C 76 % 81 % 1007,8 hPa 0,0 l/m 0,0 km/h (0 Bft) N 0,00 h 16,5 C 18,7 C 0,0 km/h (0 Bft)
18.09.2023 18:00 19,4 C 19,5 C 18,5 C 18,9 C 17,9 C 0,0 C 82 % 86 % 1007,3 hPa 0,7 l/m 0,0 km/h (0 Bft) N 0,00 h 16,2 C 17,9 C 0,0 km/h (0 Bft)
18.09.2023 19:00 18,7 C 19,6 C 17,9 C 18,3 C 17,6 C 0,0 C 84 % 90 % 1007,1 hPa 0,7 l/m 0,0 km/h (0 Bft) N 0,00 h 16,0 C 17,6 C 0,0 km/h (0 Bft)
18.09.2023 20:00 18,0 C 19,5 C 17,2 C 17,6 C 16,9 C 0,0 C 86 % 90 % 1007,0 hPa 0,0 l/m 0,0 km/h (0 Bft) N 0,00 h 15,6 C 16,9 C 0,0 km/h (0 Bft)
18.09.2023 21:00 17,1 C 19,6 C 16,4 C 16,8 C 16,2 C 0,0 C 86 % 90 % 1006,9 hPa 0,0 l/m 0,1 km/h (0 Bft) N 0,00 h 14,8 C 16,2 C 0,5 km/h (0 Bft)
18.09.2023 22:00 16,7 C 19,4 C 16,0 C 16,4 C 15,7 C 0,0 C 87 % 90 % 1006,9 hPa 0,0 l/m 0,5 km/h (0 Bft) S-SO 0,00 h 14,5 C 15,7 C 2,3 km/h (1 Bft)
18.09.2023 23:00 16,7 C 19,2 C 15,8 C 16,4 C 15,8 C 0,0 C 86 % 90 % 1006,8 hPa 0,0 l/m 1,1 km/h (1 Bft) N-NO 0,00 h 14,3 C 15,8 C 2,6 km/h (1 Bft)
19.09.2023 00:00 16,7 C 19,0 C 15,8 C 16,5 C 16,1 C 0,0 C 86 % 90 % 1006,6 hPa 0,0 l/m 1,4 km/h (1 Bft) S-SO 0,00 h 14,3 C 16,1 C 1,7 km/h (1 Bft)
19.09.2023 01:00 16,8 C 18,9 C 15,9 C 16,6 C 16,2 C 0,0 C 86 % 90 % 1006,2 hPa 0,0 l/m 1,2 km/h (1 Bft) S 0,00 h 14,4 C 16,2 C 2,1 km/h (1 Bft)
19.09.2023 02:00 17,1 C 18,7 C 16,4 C 17,0 C 16,7 C 0,0 C 86 % 90 % 1006,1 hPa 0,0 l/m 1,4 km/h (1 Bft) S-SO 0,00 h 14,6 C 16,7 C 5,3 km/h (1 Bft)
19.09.2023 03:00 17,4 C 18,6 C 16,7 C 17,3 C 17,1 C 0,0 C 84 % 86 % 1006,3 hPa 0,0 l/m 2,4 km/h (1 Bft) S 0,00 h 14,6 C 17,1 C 3,7 km/h (1 Bft)
19.09.2023 04:00 17,3 C 18,5 C 16,5 C 17,1 C 16,8 C 0,0 C 83 % 83 % 1006,6 hPa 0,0 l/m 1,3 km/h (1 Bft) SW 0,00 h 14,2 C 16,8 C 2,5 km/h (1 Bft)
19.09.2023 05:00 16,8 C 18,4 C 16,1 C 16,5 C 16,0 C 0,0 C 82 % 83 % 1007,0 hPa 0,0 l/m 0,6 km/h (0 Bft) S-SO 0,00 h 13,7 C 16,0 C 1,9 km/h (1 Bft)
19.09.2023 06:00 16,5 C 18,3 C 15,8 C 16,2 C 15,7 C 0,0 C 83 % 82 % 1007,4 hPa 0,0 l/m 0,8 km/h (0 Bft) SO 0,00 h 13,6 C 15,7 C 1,9 km/h (1 Bft)
19.09.2023 07:00 16,4 C 18,2 C 15,9 C 16,2 C 16,0 C 0,0 C 83 % 81 % 1008,0 hPa 0,0 l/m 0,3 km/h (0 Bft) N 0,00 h 13,5 C 16,0 C 0,7 km/h (0 Bft)
19.09.2023 08:00 16,7 C 18,1 C 16,2 C 17,6 C 17,6 C 0,9 C 82 % 79 % 1008,9 hPa 0,0 l/m 0,1 km/h (0 Bft) N 0,00 h 13,6 C 17,6 C 0,3 km/h (0 Bft)
19.09.2023 09:00 17,4 C 18,0 C 17,2 C 19,6 C 19,6 C 2,2 C 78 % 72 % 1009,4 hPa 0,0 l/m 0,0 km/h (0 Bft) N 0,08 h 13,6 C 19,6 C 0,0 km/h (0 Bft)
19.09.2023 10:00 18,6 C 18,0 C 18,5 C 21,0 C 21,0 C 2,4 C 75 % 69 % 1009,8 hPa 0,0 l/m 0,0 km/h (0 Bft) N 0,00 h 14,1 C 21,0 C 0,0 km/h (0 Bft)
19.09.2023 11:00 19,5 C 17,9 C 19,4 C 21,8 C 21,8 C 2,3 C 67 % 59 % 1010,2 hPa 0,0 l/m 0,1 km/h (0 Bft) N 0,00 h 13,2 C 21,8 C 0,7 km/h (0 Bft)
19.09.2023 12:00 20,1 C 17,9 C 20,0 C 22,7 C 22,7 C 2,6 C 62 % 53 % 1010,4 hPa 0,0 l/m 0,0 km/h (0 Bft) N 0,08 h 12,6 C 22,7 C 0,0 km/h (0 Bft)
19.09.2023 13:00 20,6 C 17,8 C 20,0 C 24,5 C 24,5 C 3,9 C 57 % 48 % 1010,6 hPa 0,0 l/m 0,1 km/h (0 Bft) N 0,92 h 11,9 C 24,5 C 0,4 km/h (0 Bft)
19.09.2023 14:00 21,6 C 17,8 C 20,8 C 26,2 C 26,2 C 4,6 C 53 % 47 % 1010,5 hPa 0,0 l/m 0,1 km/h (0 Bft) N 1,00 h 11,6 C 26,2 C 0,2 km/h (0 Bft)
19.09.2023 15:00 21,9 C 17,8 C 21,5 C 26,4 C 26,4 C 4,5 C 52 % 47 % 1010,5 hPa 0,0 l/m 0,2 km/h (0 Bft) N 0,92 h 11,7 C 26,4 C 1,1 km/h (1 Bft)
19.09.2023 16:00 22,2 C 17,8 C 22,1 C 23,7 C 23,7 C 1,5 C 49 % 43 % 1010,7 hPa 0,0 l/m 0,3 km/h (0 Bft) N 0,00 h 10,9 C 23,7 C 0,5 km/h (0 Bft)
19.09.2023 17:00 21,7 C 17,8 C 21,5 C 21,9 C 21,9 C 0,3 C 47 % 40 % 1010,9 hPa 0,0 l/m 0,9 km/h (0 Bft) S-SO 0,00 h 9,9 C 21,9 C 2,3 km/h (1 Bft)
19.09.2023 18:00 20,8 C 17,8 C 20,3 C 20,7 C 20,4 C 0,0 C 47 % 39 % 1011,2 hPa 0,0 l/m 0,6 km/h (0 Bft) S-SO 0,00 h 9,2 C 20,4 C 0,4 km/h (0 Bft)
19.09.2023 19:00 19,1 C 17,8 C 18,3 C 18,6 C 17,8 C 0,0 C 49 % 39 % 1011,2 hPa 0,0 l/m 0,1 km/h (0 Bft) N 0,00 h 7,9 C 17,8 C 0,1 km/h (0 Bft)
19.09.2023 20:00 17,5 C 17,8 C 16,7 C 17,0 C 16,1 C 0,0 C 53 % 42 % 1011,7 hPa 0,0 l/m 0,0 km/h (0 Bft) N 0,00 h 7,7 C 16,1 C 0,0 km/h (0 Bft)
19.09.2023 21:00 16,1 C 17,8 C 14,8 C 15,7 C 15,0 C 0,0 C 59 % 50 % 1012,1 hPa 0,0 l/m 0,0 km/h (0 Bft) N 0,00 h 8,0 C 15,0 C 0,0 km/h (0 Bft)
19.09.2023 22:00 15,5 C 17,7 C 15,1 C 15,3 C 14,8 C 0,0 C 64 % 53 % 1012,4 hPa 0,0 l/m 0,2 km/h (0 Bft) N 0,00 h 8,8 C 14,8 C 0,6 km/h (0 Bft)
19.09.2023 23:00 14,8 C 17,6 C 13,7 C 14,4 C 13,5 C 0,0 C 67 % 58 % 1012,4 hPa 0,0 l/m 0,0 km/h (0 Bft) N 0,00 h 8,7 C 13,5 C 0,0 km/h (0 Bft)
20.09.2023 00:00 12,4 C 17,6 C 11,7 C 12,1 C 11,3 C 0,0 C 76 % 68 % 1012,2 hPa 0,0 l/m 0,0 km/h (0 Bft) N 0,00 h 8,3 C 11,3 C 0,0 km/h (0 Bft)
20.09.2023 01:00 13,7 C 17,4 C 13,9 C 13,9 C 13,9 C 0,2 C 79 % 68 % 1012,2 hPa 0,0 l/m 0,1 km/h (0 Bft) N 0,00 h 10,1 C 13,9 C 0,2 km/h (0 Bft)
20.09.2023 02:00 15,0 C 17,2 C 14,5 C 14,9 C 14,5 C 0,0 C 75 % 65 % 1012,1 hPa 0,0 l/m 0,2 km/h (0 Bft) N 0,00 h 10,7 C 14,5 C 0,3 km/h (0 Bft)
20.09.2023 03:00 15,1 C 17,2 C 14,7 C 15,0 C 14,7 C 0,0 C 75 % 66 % 1012,2 hPa 0,0 l/m 0,5 km/h (0 Bft) S-SO 0,00 h 10,8 C 14,7 C 0,5 km/h (0 Bft)
20.09.2023 04:00 15,2 C 17,1 C 14,8 C 15,0 C 14,6 C 0,0 C 75 % 65 % 1012,0 hPa 0,0 l/m 0,1 km/h (0 Bft) N 0,00 h 10,8 C 14,6 C 0,0 km/h (0 Bft)
20.09.2023 05:00 14,9 C 17,1 C 14,4 C 14,7 C 14,3 C 0,0 C 76 % 67 % 1012,1 hPa 0,0 l/m 0,1 km/h (0 Bft) N 0,00 h 10,8 C 14,3 C 0,0 km/h (0 Bft)
20.09.2023 06:00 14,8 C 17,2 C 14,2 C 16,0 C 15,9 C 1,3 C 78 % 68 % 1012,3 hPa 0,0 l/m 0,1 km/h (0 Bft) N 0,00 h 10,9 C 15,9 C 0,0 km/h (0 Bft)
20.09.2023 07:00 16,1 C 17,0 C 15,3 C 21,2 C 21,2 C 5,0 C 76 % 69 % 1012,5 hPa 0,0 l/m 0,2 km/h (0 Bft) S 0,92 h 11,8 C 21,2 C 0,6 km/h (0 Bft)
20.09.2023 08:00 17,6 C 17,0 C 17,4 C 19,4 C 19,4 C 1,8 C 72 % 63 % 1012,8 hPa 0,0 l/m 1,1 km/h (1 Bft) SW 0,25 h 12,5 C 19,4 C 2,8 km/h (1 Bft)
20.09.2023 09:00 19,3 C 17,0 C 19,0 C 20,4 C 20,4 C 1,1 C 67 % 59 % 1012,6 hPa 0,0 l/m 0,8 km/h (0 Bft) SO 0,00 h 13,1 C 20,4 C 2,0 km/h (1 Bft)
20.09.2023 10:00 20,8 C 17,2 C 20,4 C 21,6 C 21,6 C 0,8 C 64 % 56 % 1012,4 hPa 0,0 l/m 0,5 km/h (0 Bft) N 0,00 h 13,6 C 21,6 C 0,7 km/h (0 Bft)
20.09.2023 11:00 22,1 C 17,3 C 21,6 C 23,3 C 23,3 C 1,2 C 60 % 53 % 1012,0 hPa 0,0 l/m 0,4 km/h (0 Bft) N 0,08 h 13,9 C 23,3 C 0,5 km/h (0 Bft)
20.09.2023 12:00 23,5 C 17,5 C 22,2 C 26,2 C 26,2 C 2,7 C 55 % 52 % 1011,4 hPa 0,0 l/m 0,6 km/h (0 Bft) S 0,33 h 14,0 C 26,2 C 0,9 km/h (0 Bft)
20.09.2023 13:00 23,3 C 17,6 C 22,6 C 25,2 C 25,2 C 1,9 C 56 % 53 % 1010,8 hPa 0,0 l/m 0,1 km/h (0 Bft) N 0,00 h 14,1 C 25,2 C 0,0 km/h (0 Bft)
20.09.2023 14:00 24,7 C 17,8 C 24,1 C 29,3 C 29,3 C 4,6 C 53 % 52 % 1010,2 hPa 0,0 l/m 0,0 km/h (0 Bft) N 0,83 h 14,6 C 29,3 C 0,0 km/h (0 Bft)
20.09.2023 15:00 25,2 C 17,9 C 24,7 C 28,9 C 28,9 C 3,7 C 51 % 49 % 1009,7 hPa 0,0 l/m 0,1 km/h (0 Bft) N 0,75 h 14,5 C 28,9 C 0,2 km/h (0 Bft)
20.09.2023 16:00 25,6 C 18,1 C 24,9 C 25,6 C 25,5 C 0,0 C 49 % 48 % 1009,4 hPa 0,0 l/m 0,1 km/h (0 Bft) N 0,00 h 14,2 C 25,5 C 0,1 km/h (0 Bft)
20.09.2023 17:00 24,8 C 18,3 C 22,7 C 24,4 C 23,7 C 0,0 C 51 % 50 % 1009,1 hPa 0,0 l/m 0,0 km/h (0 Bft) N 0,00 h 13,9 C 23,7 C 0,0 km/h (0 Bft)
20.09.2023 18:00 21,4 C 18,4 C 19,1 C 20,8 C 19,6 C 0,0 C 58 % 58 % 1008,8 hPa 0,0 l/m 0,0 km/h (0 Bft) N 0,00 h 12,8 C 19,6 C 0,0 km/h (0 Bft)
20.09.2023 19:00 18,1 C 18,5 C 16,6 C 17,6 C 16,4 C 0,0 C 67 % 66 % 1008,7 hPa 0,0 l/m 0,0 km/h (0 Bft) N 0,00 h 12,0 C 16,4 C 0,0 km/h (0 Bft)
20.09.2023 20:00 16,2 C 18,5 C 15,2 C 15,7 C 14,8 C 0,0 C 74 % 70 % 1008,7 hPa 0,0 l/m 0,0 km/h (0 Bft) N 0,00 h 11,5 C 14,8 C 0,0 km/h (0 Bft)
20.09.2023 21:00 15,6 C 18,5 C 14,8 C 15,1 C 14,4 C 0,0 C 76 % 72 % 1008,7 hPa 0,0 l/m 0,0 km/h (0 Bft) N 0,00 h 11,3 C 14,4 C 0,0 km/h (0 Bft)
20.09.2023 22:00 14,8 C 18,5 C 14,2 C 14,4 C 13,7 C 0,0 C 78 % 73 % 1008,5 hPa 0,0 l/m 0,0 km/h (0 Bft) N 0,00 h 11,0 C 13,7 C 0,0 km/h (0 Bft)
20.09.2023 23:00 13,8 C 18,5 C 13,4 C 13,5 C 12,8 C 0,0 C 81 % 75 % 1008,0 hPa 0,0 l/m 0,0 km/h (0 Bft) N 0,00 h 10,7 C 12,8 C 0,0 km/h (0 Bft)
21.09.2023 00:00 12,9 C 18,4 C 12,6 C 12,6 C 12,0 C 0,0 C 83 % 76 % 1007,8 hPa 0,0 l/m 0,0 km/h (0 Bft) N 0,00 h 10,1 C 12,0 C 0,0 km/h (0 Bft)
21.09.2023 01:00 12,4 C 18,3 C 12,0 C 12,1 C 11,4 C 0,0 C 84 % 78 % 1007,4 hPa 0,0 l/m 0,0 km/h (0 Bft) N 0,00 h 9,8 C 11,4 C 0,0 km/h (0 Bft)
21.09.2023 02:00 11,8 C 18,2 C 11,4 C 11,4 C 10,8 C 0,0 C 85 % 78 % 1007,0 hPa 0,0 l/m 0,0 km/h (0 Bft) N 0,00 h 9,3 C 10,8 C 0,0 km/h (0 Bft)
21.09.2023 03:00 11,2 C 18,0 C 10,9 C 10,9 C 10,3 C 0,0 C 86 % 79 % 1006,8 hPa 0,0 l/m 0,0 km/h (0 Bft) N 0,00 h 8,9 C 10,3 C 0,0 km/h (0 Bft)
21.09.2023 04:00 10,9 C 17,9 C 10,6 C 10,6 C 10,2 C 0,0 C 86 % 79 % 1006,4 hPa 0,0 l/m 0,0 km/h (0 Bft) N 0,00 h 8,7 C 10,2 C 0,0 km/h (0 Bft)
21.09.2023 05:00 10,6 C 17,7 C 10,3 C 10,4 C 10,0 C 0,0 C 87 % 80 % 1005,7 hPa 0,0 l/m 0,0 km/h (0 Bft) N 0,00 h 8,6 C 10,0 C 0,0 km/h (0 Bft)
21.09.2023 06:00 10,4 C 17,5 C 10,2 C 10,2 C 9,9 C 0,0 C 87 % 80 % 1005,7 hPa 0,0 l/m 0,0 km/h (0 Bft) N 0,00 h 8,3 C 9,9 C 0,0 km/h (0 Bft)
21.09.2023 07:00 10,7 C 17,4 C 10,5 C 11,8 C 11,7 C 1,1 C 88 % 81 % 1005,4 hPa 0,0 l/m 0,0 km/h (0 Bft) N 0,42 h 8,8 C 11,7 C 0,0 km/h (0 Bft)
21.09.2023 08:00 12,5 C 17,2 C 11,6 C 16,9 C 16,9 C 4,4 C 88 % 82 % 1005,1 hPa 0,0 l/m 0,0 km/h (0 Bft) N 1,00 h 10,6 C 16,9 C 0,0 km/h (0 Bft)
21.09.2023 09:00 13,8 C 17,0 C 14,2 C 18,1 C 18,1 C 4,3 C 88 % 81 % 1004,9 hPa 0,0 l/m 0,0 km/h (0 Bft) N 0,83 h 11,8 C 18,1 C 0,0 km/h (0 Bft)
21.09.2023 10:00 18,4 C 16,8 C 18,3 C 21,9 C 21,9 C 3,6 C 83 % 74 % 1004,7 hPa 0,0 l/m 0,0 km/h (0 Bft) N 0,28 h 15,4 C 21,9 C 0,2 km/h (0 Bft)
21.09.2023 11:00 22,4 C 16,9 C 21,1 C 23,7 C 23,7 C 1,3 C 66 % 63 % 1004,1 hPa 0,0 l/m 0,1 km/h (0 Bft) N 0,00 h 15,6 C 23,7 C 0,6 km/h (0 Bft)
21.09.2023 12:00 25,5 C 17,1 C 24,0 C 28,3 C 28,3 C 2,8 C 55 % 54 % 1003,2 hPa 0,0 l/m 0,3 km/h (0 Bft) N 0,48 h 15,7 C 28,3 C 1,4 km/h (1 Bft)
21.09.2023 13:00 29,1 C 17,3 C 25,4 C 34,7 C 34,7 C 5,7 C 47 % 52 % 1002,4 hPa 0,0 l/m 0,0 km/h (0 Bft) N 1,00 h 16,5 C 34,7 C 0,5 km/h (0 Bft)
21.09.2023 14:00 29,0 C 17,5 C 26,5 C 33,8 C 33,8 C 4,9 C 44 % 48 % 1001,6 hPa 0,0 l/m 0,1 km/h (0 Bft) N 0,75 h 15,3 C 33,8 C 0,0 km/h (0 Bft)
21.09.2023 15:00 28,3 C 17,8 C 27,2 C 33,7 C 33,7 C 5,3 C 42 % 43 % 1001,0 hPa 0,0 l/m 0,5 km/h (0 Bft) NO 0,83 h 14,2 C 33,7 C 1,4 km/h (1 Bft)
21.09.2023 16:00 28,3 C 18,1 C 27,0 C 28,8 C 28,8 C 0,5 C 39 % 40 % 1000,7 hPa 0,0 l/m 0,7 km/h (0 Bft) O-SO 0,00 h 12,8 C 28,8 C 2,9 km/h (1 Bft)
21.09.2023 17:00 27,4 C 18,3 C 26,0 C 27,4 C 27,3 C 0,0 C 43 % 42 % 1000,3 hPa 0,0 l/m 0,7 km/h (0 Bft) O-NO 0,00 h 13,6 C 27,3 C 1,3 km/h (1 Bft)
21.09.2023 18:00 25,3 C 18,4 C 23,6 C 25,0 C 24,5 C 0,0 C 54 % 52 % 1000,0 hPa 0,0 l/m 0,5 km/h (0 Bft) NO 0,00 h 15,1 C 24,5 C 0,7 km/h (0 Bft)
21.09.2023 19:00 22,5 C 18,6 C 20,8 C 22,0 C 21,2 C 0,0 C 64 % 63 % 999,7 hPa 0,0 l/m 0,1 km/h (0 Bft) N 0,00 h 15,3 C 21,2 C 0,3 km/h (0 Bft)
21.09.2023 20:00 21,1 C 18,7 C 20,0 C 20,7 C 19,8 C 0,0 C 70 % 67 % 999,5 hPa 0,0 l/m 0,0 km/h (0 Bft) N 0,00 h 15,4 C 19,8 C 0,0 km/h (0 Bft)
21.09.2023 21:00 20,0 C 18,7 C 19,0 C 19,6 C 18,8 C 0,0 C 72 % 69 % 998,8 hPa 0,0 l/m 0,0 km/h (0 Bft) N 0,00 h 14,8 C 18,8 C 0,0 km/h (0 Bft)
21.09.2023 22:00 19,1 C 18,7 C 18,5 C 18,9 C 18,5 C 0,0 C 76 % 71 % 998,4 hPa 0,0 l/m 0,0 km/h (0 Bft) N 0,00 h 14,6 C 18,5 C 0,0 km/h (0 Bft)
21.09.2023 23:00 18,4 C 18,8 C 17,6 C 18,1 C 17,5 C 0,0 C 77 % 72 % 998,0 hPa 0,0 l/m 0,0 km/h (0 Bft) N 0,00 h 14,1 C 17,5 C 0,0 km/h (0 Bft)
22.09.2023 00:00 17,2 C 18,8 C 16,4 C 16,9 C 16,3 C 0,0 C 79 % 75 % 997,8 hPa 0,0 l/m 0,0 km/h (0 Bft) N 0,00 h 13,5 C 16,3 C 0,0 km/h (0 Bft)
22.09.2023 01:00 17,4 C 18,7 C 17,6 C 17,5 C 17,3 C 0,1 C 83 % 77 % 998,4 hPa 0,0 l/m 0,1 km/h (0 Bft) N 0,00 h 14,4 C 17,3 C 0,8 km/h (0 Bft)
22.09.2023 02:00 19,2 C 18,5 C 18,5 C 19,0 C 18,5 C 0,0 C 72 % 66 % 999,6 hPa 0,0 l/m 0,1 km/h (0 Bft) N 0,00 h 13,9 C 18,5 C 0,3 km/h (0 Bft)
22.09.2023 03:00 17,1 C 18,8 C 16,1 C 16,5 C 15,5 C 0,0 C 79 % 79 % 1000,6 hPa 0,7 l/m 0,2 km/h (0 Bft) N 0,00 h 13,4 C 15,5 C 0,3 km/h (0 Bft)
22.09.2023 04:00 15,9 C 18,9 C 15,3 C 15,6 C 15,0 C 0,0 C 85 % 87 % 1000,4 hPa 0,7 l/m 0,0 km/h (0 Bft) N 0,00 h 13,4 C 15,0 C 0,2 km/h (0 Bft)
22.09.2023 05:00 15,4 C 18,8 C 14,9 C 15,2 C 14,7 C 0,0 C 86 % 90 % 1000,6 hPa 0,7 l/m 0,0 km/h (0 Bft) N 0,00 h 13,1 C 14,7 C 0,0 km/h (0 Bft)
22.09.2023 06:00 15,1 C 18,7 C 14,9 C 15,0 C 14,7 C 0,0 C 87 % 90 % 1001,1 hPa 0,0 l/m 0,0 km/h (0 Bft) N 0,00 h 12,9 C 14,7 C 0,0 km/h (0 Bft)
22.09.2023 07:00 15,1 C 18,6 C 15,2 C 15,2 C 15,2 C 0,1 C 88 % 90 % 1001,9 hPa 0,0 l/m 0,0 km/h (0 Bft) N 0,00 h 13,0 C 15,2 C 0,3 km/h (0 Bft)
22.09.2023 08:00 15,3 C 18,6 C 15,4 C 15,5 C 15,5 C 0,2 C 88 % 90 % 1002,3 hPa 0,0 l/m 0,0 km/h (0 Bft) N 0,00 h 13,2 C 15,5 C 0,0 km/h (0 Bft)
22.09.2023 09:00 15,5 C 18,5 C 15,3 C 15,6 C 15,6 C 0,1 C 88 % 90 % 1002,8 hPa 0,0 l/m 0,1 km/h (0 Bft) N 0,00 h 13,4 C 15,6 C 0,0 km/h (0 Bft)
22.09.2023 10:00 15,7 C 18,5 C 15,3 C 16,0 C 16,0 C 0,3 C 88 % 90 % 1003,2 hPa 0,0 l/m 0,0 km/h (0 Bft) N 0,00 h 13,7 C 16,0 C 0,9 km/h (0 Bft)
22.09.2023 11:00 15,9 C 18,3 C 15,3 C 15,8 C 15,6 C 0,1 C 86 % 90 % 1003,4 hPa 0,7 l/m 0,3 km/h (0 Bft) N 0,00 h 13,6 C 15,6 C 1,2 km/h (1 Bft)
22.09.2023 12:00 16,0 C 18,0 C 15,3 C 16,7 C 16,7 C 0,7 C 83 % 88 % 1004,0 hPa 0,0 l/m 0,2 km/h (0 Bft) N 0,00 h 13,2 C 16,7 C 0,2 km/h (0 Bft)
22.09.2023 13:00 15,7 C 18,0 C 15,0 C 15,6 C 15,2 C 0,0 C 83 % 88 % 1004,3 hPa 0,0 l/m 0,1 km/h (0 Bft) N 0,00 h 12,9 C 15,2 C 0,0 km/h (0 Bft)
22.09.2023 14:00 16,5 C 18,0 C 16,0 C 17,1 C 17,0 C 0,6 C 85 % 90 % 1004,5 hPa 0,0 l/m 0,1 km/h (0 Bft) N 0,00 h 13,9 C 17,0 C 0,6 km/h (0 Bft)
22.09.2023 15:00 16,8 C 17,7 C 16,2 C 18,1 C 18,1 C 1,3 C 80 % 84 % 1004,4 hPa 0,0 l/m 0,1 km/h (0 Bft) N 0,00 h 13,4 C 18,1 C 0,1 km/h (0 Bft)
22.09.2023 16:00 17,7 C 17,5 C 17,1 C 19,4 C 19,4 C 1,6 C 76 % 80 % 1004,4 hPa 0,0 l/m 0,1 km/h (0 Bft) N 0,00 h 13,5 C 19,4 C 0,4 km/h (0 Bft)
22.09.2023 17:00 17,1 C 17,5 C 15,9 C 17,0 C 16,8 C 0,0 C 75 % 79 % 1004,8 hPa 0,0 l/m 0,0 km/h (0 Bft) N 0,00 h 12,6 C 16,8 C 0,0 km/h (0 Bft)
22.09.2023 18:00 16,2 C 17,5 C 15,4 C 16,1 C 15,8 C 0,0 C 77 % 78 % 1005,3 hPa 0,0 l/m 0,0 km/h (0 Bft) N 0,00 h 12,3 C 15,8 C 0,0 km/h (0 Bft)
22.09.2023 19:00 15,5 C 17,6 C 14,9 C 15,4 C 15,1 C 0,0 C 80 % 78 % 1005,3 hPa 0,0 l/m 0,0 km/h (0 Bft) N 0,00 h 12,0 C 15,1 C 0,0 km/h (0 Bft)
22.09.2023 20:00 14,9 C 17,5 C 14,4 C 14,7 C 14,4 C 0,0 C 81 % 78 % 1005,5 hPa 0,0 l/m 0,0 km/h (0 Bft) N 0,00 h 11,7 C 14,4 C 0,0 km/h (0 Bft)
22.09.2023 21:00 14,5 C 17,4 C 14,2 C 14,4 C 14,3 C 0,0 C 82 % 77 % 1005,9 hPa 0,0 l/m 0,0 km/h (0 Bft) N 0,00 h 11,4 C 14,3 C 0,0 km/h (0 Bft)
22.09.2023 22:00 14,2 C 17,4 C 13,7 C 14,0 C 13,7 C 0,0 C 81 % 76 % 1006,2 hPa 0,0 l/m 0,0 km/h (0 Bft) N 0,00 h 11,0 C 13,7 C 0,0 km/h (0 Bft)
22.09.2023 23:00 14,1 C 17,3 C 13,6 C 13,9 C 13,7 C 0,0 C 80 % 74 % 1006,1 hPa 0,0 l/m 0,1 km/h (0 Bft) N 0,00 h 10,7 C 13,7 C 0,6 km/h (0 Bft)
23.09.2023 00:00 14,2 C 17,2 C 13,7 C 14,1 C 13,8 C 0,0 C 79 % 72 % 1006,6 hPa 0,0 l/m 0,2 km/h (0 Bft) N 0,00 h 10,6 C 13,8 C 0,7 km/h (0 Bft)
23.09.2023 01:00 14,0 C 17,0 C 13,5 C 13,9 C 13,5 C 0,0 C 78 % 71 % 1007,1 hPa 0,0 l/m 0,3 km/h (0 Bft) N 0,00 h 10,3 C 13,5 C 0,5 km/h (0 Bft)
23.09.2023 02:00 13,6 C 16,9 C 13,0 C 13,3 C 12,8 C 0,0 C 79 % 71 % 1007,5 hPa 0,0 l/m 0,1 km/h (0 Bft) N 0,00 h 10,1 C 12,8 C 0,0 km/h (0 Bft)
23.09.2023 03:00 13,1 C 16,9 C 12,6 C 12,9 C 12,3 C 0,0 C 80 % 72 % 1008,4 hPa 0,0 l/m 0,1 km/h (0 Bft) N 0,00 h 9,8 C 12,3 C 0,2 km/h (0 Bft)
23.09.2023 04:00 12,6 C 16,7 C 12,2 C 12,3 C 11,8 C 0,0 C 81 % 73 % 1008,9 hPa 0,0 l/m 0,0 km/h (0 Bft) N 0,00 h 9,5 C 11,8 C 0,0 km/h (0 Bft)
23.09.2023 05:00 12,2 C 16,6 C 11,7 C 11,9 C 11,3 C 0,0 C 82 % 73 % 1009,7 hPa 0,0 l/m 0,3 km/h (0 Bft) N 0,00 h 9,2 C 11,3 C 1,1 km/h (0 Bft)
23.09.2023 06:00 11,9 C 16,5 C 11,6 C 11,8 C 11,5 C 0,0 C 82 % 73 % 1010,5 hPa 0,0 l/m 0,2 km/h (0 Bft) N 0,00 h 9,0 C 11,5 C 0,2 km/h (0 Bft)
23.09.2023 07:00 12,6 C 16,3 C 12,6 C 13,2 C 13,2 C 0,6 C 80 % 69 % 1011,3 hPa 0,0 l/m 0,4 km/h (0 Bft) N 0,25 h 9,3 C 13,2 C 0,5 km/h (0 Bft)
23.09.2023 08:00 13,2 C 16,2 C 12,9 C 13,9 C 13,9 C 0,6 C 77 % 66 % 1012,0 hPa 0,0 l/m 0,2 km/h (0 Bft) N 0,00 h 9,4 C 13,9 C 0,4 km/h (0 Bft)
23.09.2023 09:00 14,4 C 16,1 C 14,1 C 15,6 C 15,6 C 1,2 C 73 % 61 % 1012,8 hPa 0,0 l/m 0,1 km/h (0 Bft) N 0,00 h 9,6 C 15,6 C 0,2 km/h (0 Bft)
23.09.2023 10:00 14,9 C 16,1 C 14,6 C 16,1 C 16,1 C 1,2 C 69 % 58 % 1013,7 hPa 0,0 l/m 0,1 km/h (0 Bft) N 0,00 h 9,3 C 16,1 C 0,0 km/h (0 Bft)
23.09.2023 11:00 16,1 C 16,0 C 15,9 C 19,0 C 19,0 C 2,9 C 66 % 55 % 1013,8 hPa 0,0 l/m 0,1 km/h (0 Bft) N 0,33 h 9,7 C 19,0 C 0,2 km/h (0 Bft)
23.09.2023 12:00 18,3 C 16,0 C 17,2 C 23,3 C 23,3 C 5,0 C 58 % 50 % 1014,1 hPa 0,0 l/m 0,1 km/h (0 Bft) N 1,00 h 10,0 C 23,3 C 0,0 km/h (0 Bft)
23.09.2023 13:00 18,8 C 16,0 C 18,0 C 24,3 C 24,3 C 5,5 C 55 % 48 % 1014,6 hPa 0,0 l/m 0,0 km/h (0 Bft) N 1,00 h 9,5 C 24,3 C 0,0 km/h (0 Bft)
23.09.2023 14:00 18,8 C 16,1 C 18,6 C 23,9 C 23,9 C 5,2 C 54 % 46 % 1015,1 hPa 0,0 l/m 0,0 km/h (0 Bft) N 0,83 h 9,2 C 23,9 C 0,2 km/h (0 Bft)
23.09.2023 15:00 18,4 C 16,1 C 17,9 C 19,1 C 19,1 C 0,8 C 54 % 45 % 1015,7 hPa 0,0 l/m 0,1 km/h (0 Bft) N 0,00 h 8,9 C 19,1 C 0,4 km/h (0 Bft)
23.09.2023 16:00 17,4 C 16,2 C 16,8 C 17,6 C 17,6 C 0,2 C 57 % 47 % 1016,6 hPa 0,0 l/m 0,2 km/h (0 Bft) N 0,00 h 8,8 C 17,6 C 0,2 km/h (0 Bft)
23.09.2023 17:00 16,8 C 16,2 C 15,9 C 16,6 C 16,3 C 0,1 C 61 % 52 % 1017,5 hPa 0,0 l/m 0,0 km/h (0 Bft) N 0,00 h 9,1 C 16,3 C 0,0 km/h (0 Bft)
23.09.2023 18:00 14,7 C 16,3 C 13,1 C 14,1 C 12,8 C 0,0 C 66 % 59 % 1017,6 hPa 0,0 l/m 0,0 km/h (0 Bft) N 0,00 h 8,3 C 12,8 C 0,0 km/h (0 Bft)
23.09.2023 19:00 12,4 C 16,3 C 11,3 C 11,9 C 10,9 C 0,0 C 73 % 66 % 1018,6 hPa 0,0 l/m 0,0 km/h (0 Bft) N 0,00 h 7,7 C 10,9 C 0,0 km/h (0 Bft)
23.09.2023 20:00 11,1 C 16,3 C 10,4 C 10,7 C 9,9 C 0,0 C 78 % 69 % 1019,5 hPa 0,0 l/m 0,0 km/h (0 Bft) N 0,00 h 7,3 C 9,9 C 0,0 km/h (0 Bft)
23.09.2023 21:00 9,8 C 16,3 C 9,3 C 9,4 C 8,4 C 0,0 C 81 % 72 % 1020,3 hPa 0,0 l/m 0,0 km/h (0 Bft) N 0,00 h 6,6 C 8,4 C 0,0 km/h (0 Bft)
23.09.2023 22:00 9,2 C 16,2 C 9,0 C 8,9 C 8,4 C 0,0 C 83 % 74 % 1021,0 hPa 0,0 l/m 0,0 km/h (0 Bft) N 0,00 h 6,6 C 8,4 C 0,0 km/h (0 Bft)
23.09.2023 23:00 9,2 C 16,1 C 9,0 C 9,0 C 8,5 C 0,0 C 85 % 76 % 1021,6 hPa 0,0 l/m 0,0 km/h (0 Bft) N 0,00 h 6,8 C 8,5 C 0,0 km/h (0 Bft)
24.09.2023 00:00 8,8 C 16,0 C 8,5 C 8,6 C 8,1 C 0,0 C 85 % 75 % 1021,5 hPa 0,0 l/m 0,0 km/h (0 Bft) N 0,00 h 6,5 C 8,1 C 0,0 km/h (0 Bft)
24.09.2023 01:00 8,2 C 15,9 C 7,8 C 7,9 C 7,3 C 0,0 C 86 % 76 % 1022,0 hPa 0,0 l/m 0,0 km/h (0 Bft) N 0,00 h 6,0 C 7,3 C 0,0 km/h (0 Bft)
24.09.2023 02:00 7,6 C 15,8 C 7,1 C 7,3 C 6,5 C 0,0 C 86 % 76 % 1022,7 hPa 0,0 l/m 0,0 km/h (0 Bft) N 0,00 h 5,5 C 6,5 C 0,0 km/h (0 Bft)
24.09.2023 03:00 7,3 C 15,7 C 7,0 C 7,1 C 6,5 C 0,0 C 87 % 78 % 1023,2 hPa 0,0 l/m 0,0 km/h (0 Bft) N 0,00 h 5,3 C 6,5 C 0,0 km/h (0 Bft)
24.09.2023 04:00 6,9 C 15,5 C 6,5 C 6,6 C 6,1 C 0,0 C 87 % 78 % 1023,9 hPa 0,0 l/m 0,0 km/h (0 Bft) N 0,00 h 4,9 C 6,1 C 0,0 km/h (0 Bft)
24.09.2023 05:00 6,9 C 15,4 C 7,0 C 6,9 C 6,7 C 0,1 C 88 % 79 % 1024,8 hPa 0,0 l/m 0,0 km/h (0 Bft) N 0,00 h 5,0 C 6,7 C 0,0 km/h (0 Bft)
24.09.2023 06:00 7,7 C 15,2 C 8,7 C 8,4 C 8,4 C 0,7 C 88 % 79 % 1025,6 hPa 0,0 l/m 0,0 km/h (0 Bft) N 0,00 h 5,8 C 8,4 C 0,0 km/h (0 Bft)
24.09.2023 07:00 8,8 C 15,1 C 10,0 C 10,3 C 10,3 C 1,5 C 88 % 78 % 1026,3 hPa 0,0 l/m 0,0 km/h (0 Bft) N 0,83 h 6,9 C 10,3 C 0,0 km/h (0 Bft)
24.09.2023 08:00 10,1 C 15,0 C 11,8 C 13,7 C 13,7 C 3,6 C 88 % 77 % 1026,9 hPa 0,0 l/m 0,0 km/h (0 Bft) N 0,92 h 8,2 C 13,7 C 0,0 km/h (0 Bft)
24.09.2023 10:00 13,8 C 14,9 C 14,4 C 17,7 C 17,7 C 3,9 C 85 % 72 % 1027,1 hPa 0,0 l/m 0,0 km/h (0 Bft) N 1,28 h 11,3 C 17,7 C 0,0 km/h (0 Bft)
24.09.2023 11:00 14,7 C 15,0 C 14,6 C 17,6 C 17,6 C 2,9 C 80 % 70 % 1027,2 hPa 0,0 l/m 0,0 km/h (0 Bft) N 0,25 h 11,4 C 17,6 C 0,0 km/h (0 Bft)
24.09.2023 12:00 16,0 C 15,0 C 15,7 C 18,7 C 18,7 C 2,7 C 75 % 67 % 1027,2 hPa 0,0 l/m 0,0 km/h (0 Bft) N 0,00 h 11,6 C 18,7 C 0,0 km/h (0 Bft)
24.09.2023 13:00 16,8 C 15,1 C 16,8 C 20,2 C 20,2 C 3,4 C 71 % 63 % 1027,3 hPa 0,0 l/m 0,0 km/h (0 Bft) N 0,55 h 11,6 C 20,2 C 0,0 km/h (0 Bft)
24.09.2023 14:00 18,1 C 15,3 C 17,6 C 23,5 C 23,5 C 5,4 C 66 % 59 % 1027,1 hPa 0,0 l/m 0,0 km/h (0 Bft) N 0,92 h 11,7 C 23,5 C 0,0 km/h (0 Bft)
24.09.2023 15:00 18,0 C 15,4 C 17,9 C 22,9 C 22,9 C 4,8 C 64 % 57 % 1026,8 hPa 0,0 l/m 0,0 km/h (0 Bft) N 0,67 h 11,1 C 22,9 C 0,0 km/h (0 Bft)
24.09.2023 16:00 18,3 C 15,5 C 18,1 C 20,2 C 20,2 C 2,0 C 61 % 52 % 1026,6 hPa 0,0 l/m 0,0 km/h (0 Bft) N 0,27 h 10,7 C 20,2 C 0,7 km/h (0 Bft)
24.09.2023 17:00 17,2 C 15,6 C 16,4 C 17,3 C 17,2 C 0,2 C 65 % 58 % 1026,2 hPa 0,0 l/m 0,0 km/h (0 Bft) N 0,00 h 10,5 C 17,2 C 0,0 km/h (0 Bft)
24.09.2023 18:00 16,5 C 15,7 C 15,1 C 16,2 C 15,6 C 0,0 C 68 % 64 % 1026,2 hPa 0,0 l/m 0,0 km/h (0 Bft) N 0,00 h 10,6 C 15,6 C 0,0 km/h (0 Bft)
24.09.2023 19:00 14,1 C 15,9 C 12,5 C 13,4 C 12,1 C 0,0 C 74 % 70 % 1026,4 hPa 0,0 l/m 0,0 km/h (0 Bft) N 0,00 h 9,6 C 12,1 C 0,0 km/h (0 Bft)
24.09.2023 20:00 11,8 C 16,0 C 10,8 C 11,2 C 10,0 C 0,0 C 79 % 74 % 1027,3 hPa 0,0 l/m 0,0 km/h (0 Bft) N 0,00 h 8,3 C 10,0 C 0,0 km/h (0 Bft)
24.09.2023 21:00 10,2 C 16,0 C 9,5 C 9,7 C 8,7 C 0,0 C 82 % 76 % 1027,3 hPa 0,0 l/m 0,0 km/h (0 Bft) N 0,00 h 7,3 C 8,7 C 0,0 km/h (0 Bft)
24.09.2023 22:00 9,2 C 15,9 C 8,6 C 8,8 C 7,9 C 0,0 C 84 % 77 % 1027,8 hPa 0,0 l/m 0,0 km/h (0 Bft) N 0,00 h 6,6 C 7,9 C 0,0 km/h (0 Bft)
24.09.2023 23:00 8,4 C 15,7 C 7,9 C 8,0 C 7,3 C 0,0 C 85 % 78 % 1027,4 hPa 0,0 l/m 0,0 km/h (0 Bft) N 0,00 h 6,1 C 7,3 C 0,0 km/h (0 Bft)
Min-Datum _ 24.09.23 24.09.23 24.09.23 24.09.23 24.09.23 18.09.23 21.09.23 21.09.23 21.09.23 - 18.09.23 - - 24.09.23 24.09.23 18.09.23
_ Min-Zeit 04:43 08:33 04:33 04:38 04:33 00:00 15:55 16:00 23:55 - 00:00 - - 04:43 04:33 00:00
Minimum _ 6,7 C 14,9 C 6,3 C 6,5 C 5,9 C 0,0 C 37 % 38 % 997,6 hPa - 0,0 km/h (0 Bft) - - 4,7 C 5,9 C 0,0 km/h (0 Bft)
Max-Datum _ 21.09.23 18.09.23 21.09.23 21.09.23 21.09.23 24.09.23 21.09.23 18.09.23 24.09.23 18.09.23 19.09.23 - 24.09.23 18.09.23 21.09.23 19.09.23
_ Max-Zeit 13:43 18:26 15:30 13:42 13:42 14:26 07:00 18:41 21:55 18:41 03:00 - 10:38 13:25 13:42 02:55
Maximum _ 29,8 C 19,6 C 27,5 C 35,7 C 35,7 C 9,1 C 88 % 90 % 1028,2 hPa 0,7 l/m 3,9 km/h
S (1 Bft)
- 1,00 h 17,1 C 35,7 C 14,0 km/h
S-SO (3 Bft)
Durchschnitt _ 16,8 C 17,5 C 16,2 C 17,6 C 17,3 C 1,0 C 73 % 69 % 1010,5 hPa #4,1 l/m 0,2 km/h (0 Bft) S-SO #24:10 h 11,7 C 17,3 C 0,4 km/h (0 Bft)
2023 www.wetterstation-wechselburg.de